CDT,Max TemperatureF,Mean TemperatureF,Min TemperatureF,Max Dew PointF,MeanDew PointF,Min DewpointF,Max Humidity, Mean Humidity, Min Humidity, Max Sea Level PressureIn, Mean Sea Level PressureIn, Min Sea Level PressureIn, Max VisibilityMiles, Mean VisibilityMiles, Min VisibilityMiles, Max Wind SpeedMPH, Mean Wind SpeedMPH, Max Gust SpeedMPH,PrecipitationIn, CloudCover, Events, WindDirDegrees
2013-3-1,26,14,3,12,8,1,92,72,51,30.36,30.32,30.24,10,10,7,8,3,,0.00,2,,15
2013-3-2,23,8,-7,10,2,-11,92,70,50,30.32,30.21,30.07,10,10,1,12,3,,0.00,3,,146
2013-3-3,28,20,12,12,8,5,79,58,46,30.06,29.96,29.89,10,10,10,18,8,23,0.00,5,,120
2013-3-4,23,21,19,18,15,9,93,84,54,29.98,29.90,29.85,10,6,0,21,15,28,0.02,8,Snow,117
2013-3-5,26,22,19,19,17,14,93,84,69,30.31,30.13,29.94,10,6,1,14,8,16,0.04,8,Snow,18
2013-3-6,21,11,1,14,11,0,92,80,68,30.39,30.33,30.29,10,9,4,9,5,,0.00,5,Snow,338
2013-3-7,26,11,-4,16,7,-8,100,77,59,30.31,30.26,30.19,10,9,1,17,5,23,0.00,1,Snow,128
2013-3-8,30,24,17,23,18,10,93,81,69,30.23,30.17,30.02,10,6,2,9,5,,0.00,5,Snow,133
2013-3-9,30,28,26,30,28,25,100,96,86,30.00,29.82,29.70,7,2,0,13,5,10,0.40,8,Fog-Rain-Snow,52
2013-3-10,24,17,8,23,16,7,100,85,69,30.07,29.99,29.87,10,9,4,20,11,24,0.01,5,,348
2013-3-11,23,12,1,16,9,0,92,79,68,29.98,29.84,29.75,10,10,5,12,6,,0.00,4,Snow,320
2013-3-12,21,16,8,12,10,7,92,79,63,30.21,29.99,29.81,10,9,3,21,10,28,0.00,4,Snow,305
2013-3-13,23,10,-2,14,7,-4,92,78,59,30.32,30.25,30.13,10,10,10,8,5,,0.00,1,,237
2013-3-14,35,27,19,25,21,14,100,83,65,30.13,30.05,30.00,10,8,0,13,6,,0.12,4,Snow,176
2013-3-15,26,20,15,23,19,10,100,87,69,30.00,29.94,29.85,10,4,0,14,8,18,0.05,8,Snow,28
2013-3-16,14,4,-7,10,-2,-9,92,78,62,30.23,30.12,29.97,10,8,0,15,9,23,0.00,2,Snow,317
2013-3-17,17,0,-18,14,-4,-24,93,75,58,30.23,30.02,29.66,10,9,1,21,7,26,0.00,5,Snow,122
2013-3-18,28,16,5,27,11,0,100,85,73,29.82,29.59,29.38,5,2,0,28,18,39,0.03,8,Snow,252
2013-3-19,10,4,-2,0,-5,-9,85,69,57,30.20,30.05,29.82,10,10,5,21,15,31,0.00,0,,296
2013-3-20,12,5,-2,0,-5,-9,78,67,56,30.22,30.16,30.11,10,10,7,23,14,29,0.00,0,,302
2013-3-21,21,2,-16,7,-4,-20,85,71,53,30.12,30.06,30.01,10,10,10,8,1,,0.00,0,,293
2013-3-22,26,8,-11,10,2,-15,92,72,47,30.07,30.04,30.02,10,10,10,7,1,,0.00,0,,257
2013-3-23,32,18,3,18,11,0,86,74,41,30.13,30.10,30.06,10,10,10,12,3,,0.00,2,,276
2013-3-24,28,22,17,21,16,12,86,75,59,30.11,30.07,30.04,10,9,2,14,7,17,0.00,8,Rain-Snow,353
2013-3-25,30,22,12,18,15,10,92,70,51,30.26,30.18,30.11,10,10,10,15,10,20,0.00,4,,330
2013-3-26,32,16,1,18,10,0,92,74,47,30.28,30.26,30.24,10,10,10,9,4,,0.00,1,,289
2013-3-27,35,18,1,18,11,-2,93,72,44,30.30,30.28,30.27,10,10,0,9,1,,0.00,0,Fog,151
2013-3-28,37,24,10,25,17,9,100,73,52,30.29,30.26,30.23,10,10,7,14,3,,0.00,4,,126
2013-3-29,42,30,17,34,25,16,93,78,61,30.23,30.13,29.95,10,8,3,10,3,,0.00,2,Rain,134
2013-3-30,42,35,28,34,31,27,100,87,61,29.95,29.88,29.85,10,5,0,13,6,20,0.04,5,Fog-Rain-Thunderstorm,290
2013-3-31,30,21,12,28,16,7,100,75,54,30.13,29.93,29.77,10,8,2,23,14,31,0.00,3,Snow,305